sensor_id;sensor_type;location;lat;lon;timestamp;pressure;altitude;pressure_sealevel;temperature;humidity
44734;BME280;30462;52.446;-1.930;2022-11-03T00:00:18;98937.26563;;;;
44734;BME280;30462;52.446;-1.930;2022-11-03T00:01:18;98938.79297;;;;
44734;BME280;30462;52.446;-1.930;2022-11-03T00:02:18;98937.69141;;;;
44734;BME280;30462;52.446;-1.930;2022-11-03T00:03:17;98932.29297;;;;
44734;BME280;30462;52.446;-1.930;2022-11-03T00:04:18;98939.18359;;;;
44734;BME280;30462;52.446;-1.930;2022-11-03T00:05:18;98934.80859;;;;
44734;BME280;30462;52.446;-1.930;2022-11-03T00:06:18;98946.10156;;;;
44734;BME280;30462;52.446;-1.930;2022-11-03T00:07:19;98940.48047;;;;
44734;BME280;30462;52.446;-1.930;2022-11-03T00:08:18;98940.11328;;;;
44734;BME280;30462;52.446;-1.930;2022-11-03T00:09:18;98938.24219;;;;
44734;BME280;30462;52.446;-1.930;2022-11-03T00:10:18;98937.20703;;;;
44734;BME280;30462;52.446;-1.930;2022-11-03T00:11:18;98941.08594;;;;
44734;BME280;30462;52.446;-1.930;2022-11-03T00:12:17;98941.36719;;;;
44734;BME280;30462;52.446;-1.930;2022-11-03T00:13:18;98940.92969;;;;
44734;BME280;30462;52.446;-1.930;2022-11-03T00:14:18;98934.96484;;;;
44734;BME280;30462;52.446;-1.930;2022-11-03T00:15:18;98947.65625;;;;
44734;BME280;30462;52.446;-1.930;2022-11-03T00:16:18;98951.57422;;;;
44734;BME280;30462;52.446;-1.930;2022-11-03T00:17:18;98939.59375;;;;
44734;BME280;30462;52.446;-1.930;2022-11-03T00:18:18;98948.82813;;;;
44734;BME280;30462;52.446;-1.930;2022-11-03T00:19:18;98949.05859;;;;
44734;BME280;30462;52.446;-1.930;2022-11-03T00:20:18;98954.36719;;;;
44734;BME280;30462;52.446;-1.930;2022-11-03T00:21:18;98953.08984;;;;
44734;BME280;30462;52.446;-1.930;2022-11-03T00:22:17;98953.41797;;;;
44734;BME280;30462;52.446;-1.930;2022-11-03T00:23:18;98951.57422;;;;
44734;BME280;30462;52.446;-1.930;2022-11-03T00:24:18;98946.22266;;;;
44734;BME280;30462;52.446;-1.930;2022-11-03T00:25:18;98945.83984;;;;
44734;BME280;30462;52.446;-1.930;2022-11-03T00:26:19;98941.84766;;;;
44734;BME280;30462;52.446;-1.930;2022-11-03T00:27:18;98944.57031;;;;
44734;BME280;30462;52.446;-1.930;2022-11-03T00:28:17;98943.47656;;;;
44734;BME280;30462;52.446;-1.930;2022-11-03T00:29:18;98939.81641;;;;
44734;BME280;30462;52.446;-1.930;2022-11-03T00:30:18;98946.11719;;;;
44734;BME280;30462;52.446;-1.930;2022-11-03T00:31:18;98940.21875;;;;
44734;BME280;30462;52.446;-1.930;2022-11-03T00:32:18;98938.33203;;;;
44734;BME280;30462;52.446;-1.930;2022-11-03T00:33:18;98936.53906;;;;
44734;BME280;30462;52.446;-1.930;2022-11-03T00:34:18;98932.53906;;;;
44734;BME280;30462;52.446;-1.930;2022-11-03T00:35:18;98938.28516;;;;
44734;BME280;30462;52.446;-1.930;2022-11-03T00:36:19;98935.29297;;;;
44734;BME280;30462;52.446;-1.930;2022-11-03T00:37:18;98936.30859;;;;
44734;BME280;30462;52.446;-1.930;2022-11-03T00:38:18;98937.89063;;;;
44734;BME280;30462;52.446;-1.930;2022-11-03T00:39:18;98933.62891;;;;
44734;BME280;30462;52.446;-1.930;2022-11-03T00:40:17;98934.94531;;;;
44734;BME280;30462;52.446;-1.930;2022-11-03T00:41:18;98929.85156;;;;
44734;BME280;30462;52.446;-1.930;2022-11-03T00:42:18;98936.16016;;;;
44734;BME280;30462;52.446;-1.930;2022-11-03T00:43:18;98938.16797;;;;
44734;BME280;30462;52.446;-1.930;2022-11-03T00:44:18;98936.76953;;;;
44734;BME280;30462;52.446;-1.930;2022-11-03T00:45:18;98935.34375;;;;
44734;BME280;30462;52.446;-1.930;2022-11-03T00:46:18;98935.39844;;;;
44734;BME280;30462;52.446;-1.930;2022-11-03T00:47:18;98934.61328;;;;
44734;BME280;30462;52.446;-1.930;2022-11-03T00:48:18;98941.72266;;;;
44734;BME280;30462;52.446;-1.930;2022-11-03T00:49:18;98940.14453;;;;
44734;BME280;30462;52.446;-1.930;2022-11-03T00:50:18;98940.07813;;;;
44734;BME280;30462;52.446;-1.930;2022-11-03T00:51:18;98935.89063;;;;
44734;BME280;30462;52.446;-1.930;2022-11-03T00:52:17;98937.39063;;;;
44734;BME280;30462;52.446;-1.930;2022-11-03T00:53:18;98939.08984;;;;
44734;BME280;30462;52.446;-1.930;2022-11-03T00:54:18;98934.75781;;;;
44734;BME280;30462;52.446;-1.930;2022-11-03T00:55:18;98932.76563;;;;
44734;BME280;30462;52.446;-1.930;2022-11-03T00:56:18;98932.41016;;;;
44734;BME280;30462;52.446;-1.930;2022-11-03T00:57:18;98935.86328;;;;
44734;BME280;30462;52.446;-1.930;2022-11-03T00:58:18;98934.28125;;;;
44734;BME280;30462;52.446;-1.930;2022-11-03T00:59:18;98936.56641;;;;
44734;BME280;30462;52.446;-1.930;2022-11-03T01:00:18;98936.59375;;;;
44734;BME280;30462;52.446;-1.930;2022-11-03T01:01:18;98937.94531;;;;
44734;BME280;30462;52.446;-1.930;2022-11-03T01:02:18;98940.52734;;;;
44734;BME280;30462;52.446;-1.930;2022-11-03T01:03:20;98935.76563;;;;
44734;BME280;30462;52.446;-1.930;2022-11-03T01:04:18;98935.86328;;;;
44734;BME280;30462;52.446;-1.930;2022-11-03T01:05:18;98934.67578;;;;
44734;BME280;30462;52.446;-1.930;2022-11-03T01:06:18;98930.78125;;;;
44734;BME280;30462;52.446;-1.930;2022-11-03T01:07:18;98928.43359;;;;
44734;BME280;30462;52.446;-1.930;2022-11-03T01:08:17;98930.22656;;;;
44734;BME280;30462;52.446;-1.930;2022-11-03T01:09:18;98930.90625;;;;
44734;BME280;30462;52.446;-1.930;2022-11-03T01:10:18;98927.85938;;;;
44734;BME280;30462;52.446;-1.930;2022-11-03T01:11:19;98929.63672;;;;
44734;BME280;30462;52.446;-1.930;2022-11-03T01:12:18;98933.42969;;;;
44734;BME280;30462;52.446;-1.930;2022-11-03T01:13:18;98931.77344;;;;
44734;BME280;30462;52.446;-1.930;2022-11-03T01:14:18;98930.13672;;;;
44734;BME280;30462;52.446;-1.930;2022-11-03T01:15:18;98930.02734;;;;
44734;BME280;30462;52.446;-1.930;2022-11-03T01:16:18;98932.69141;;;;
44734;BME280;30462;52.446;-1.930;2022-11-03T01:17:19;98931.44922;;;;
44734;BME280;30462;52.446;-1.930;2022-11-03T01:18:18;98934.55859;;;;
44734;BME280;30462;52.446;-1.930;2022-11-03T01:19:18;98935.96094;;;;
44734;BME280;30462;52.446;-1.930;2022-11-03T01:20:18;98935.58594;;;;
44734;BME280;30462;52.446;-1.930;2022-11-03T01:21:18;98936.85547;;;;
44734;BME280;30462;52.446;-1.930;2022-11-03T01:22:18;98930.89453;;;;
44734;BME280;30462;52.446;-1.930;2022-11-03T01:23:18;98931.80078;;;;
44734;BME280;30462;52.446;-1.930;2022-11-03T01:24:18;98929.89844;;;;
44734;BME280;30462;52.446;-1.930;2022-11-03T01:25:18;98933.12891;;;;
44734;BME280;30462;52.446;-1.930;2022-11-03T01:26:18;98932.03125;;;;
44734;BME280;30462;52.446;-1.930;2022-11-03T01:27:18;98929.22656;;;;
44734;BME280;30462;52.446;-1.930;2022-11-03T01:28:18;98926.35156;;;;
44734;BME280;30462;52.446;-1.930;2022-11-03T01:29:18;98928.97656;;;;
44734;BME280;30462;52.446;-1.930;2022-11-03T01:30:17;98930.33594;;;;
44734;BME280;30462;52.446;-1.930;2022-11-03T01:31:19;98931.99219;;;;
44734;BME280;30462;52.446;-1.930;2022-11-03T01:32:18;98933.73047;;;;
44734;BME280;30462;52.446;-1.930;2022-11-03T01:33:18;98930.04688;;;;
44734;BME280;30462;52.446;-1.930;2022-11-03T01:34:19;98931.02734;;;;
44734;BME280;30462;52.446;-1.930;2022-11-03T01:35:18;98931.42969;;;;
44734;BME280;30462;52.446;-1.930;2022-11-03T01:36:18;98926.79688;;;;
44734;BME280;30462;52.446;-1.930;2022-11-03T01:37:18;98926.55859;;;;
44734;BME280;30462;52.446;-1.930;2022-11-03T01:38:17;98921.60547;;;;
44734;BME280;30462;52.446;-1.930;2022-11-03T01:39:18;98923.08203;;;;
44734;BME280;30462;52.446;-1.930;2022-11-03T01:40:18;98919.66797;;;;
44734;BME280;30462;52.446;-1.930;2022-11-03T01:41:19;98915.78516;;;;
44734;BME280;30462;52.446;-1.930;2022-11-03T01:42:18;98915.89063;;;;
44734;BME280;30462;52.446;-1.930;2022-11-03T01:43:19;98914.82031;;;;
44734;BME280;30462;52.446;-1.930;2022-11-03T01:45:17;98911.05078;;;;
44734;BME280;30462;52.446;-1.930;2022-11-03T01:46:19;98907.18359;;;;
44734;BME280;30462;52.446;-1.930;2022-11-03T01:47:20;98911.28906;;;;
44734;BME280;30462;52.446;-1.930;2022-11-03T01:48:17;98906.46484;;;;
44734;BME280;30462;52.446;-1.930;2022-11-03T01:49:19;98907.05859;;;;
44734;BME280;30462;52.446;-1.930;2022-11-03T01:50:18;98903.73828;;;;
44734;BME280;30462;52.446;-1.930;2022-11-03T01:51:18;98904.35547;;;;
44734;BME280;30462;52.446;-1.930;2022-11-03T01:52:19;98906.39844;;;;
44734;BME280;30462;52.446;-1.930;2022-11-03T01:53:18;98904.16016;;;;
44734;BME280;30462;52.446;-1.930;2022-11-03T01:54:18;98911.60547;;;;
44734;BME280;30462;52.446;-1.930;2022-11-03T01:55:19;98913;;;;
44734;BME280;30462;52.446;-1.930;2022-11-03T01:56:18;98917.85547;;;;
44734;BME280;30462;52.446;-1.930;2022-11-03T01:57:19;98912.67578;;;;
44734;BME280;30462;52.446;-1.930;2022-11-03T01:58:20;98912.57031;;;;
44734;BME280;30462;52.446;-1.930;2022-11-03T01:59:19;98906.83984;;;;
44734;BME280;30462;52.446;-1.930;2022-11-03T02:00:18;98907.10156;;;;
44734;BME280;30462;52.446;-1.930;2022-11-03T02:01:18;98910.05078;;;;
44734;BME280;30462;52.446;-1.930;2022-11-03T02:02:18;98915.84375;;;;
44734;BME280;30462;52.446;-1.930;2022-11-03T02:03:18;98914.60156;;;;
44734;BME280;30462;52.446;-1.930;2022-11-03T02:04:19;98921.47656;;;;
44734;BME280;30462;52.446;-1.930;2022-11-03T02:05:17;98916.22656;;;;
44734;BME280;30462;52.446;-1.930;2022-11-03T02:06:18;98912.86328;;;;
44734;BME280;30462;52.446;-1.930;2022-11-03T02:07:21;98909.56641;;;;
44734;BME280;30462;52.446;-1.930;2022-11-03T02:08:20;98905.85547;;;;
44734;BME280;30462;52.446;-1.930;2022-11-03T02:09:18;98906.88672;;;;
44734;BME280;30462;52.446;-1.930;2022-11-03T02:10:18;98906.24219;;;;
44734;BME280;30462;52.446;-1.930;2022-11-03T02:11:18;98908.375;;;;
44734;BME280;30462;52.446;-1.930;2022-11-03T02:12:19;98914.27344;;;;
44734;BME280;30462;52.446;-1.930;2022-11-03T02:13:18;98914.31641;;;;
44734;BME280;30462;52.446;-1.930;2022-11-03T02:14:18;98908.68359;;;;
44734;BME280;30462;52.446;-1.930;2022-11-03T02:15:19;98905.21875;;;;
44734;BME280;30462;52.446;-1.930;2022-11-03T02:16:18;98904.18359;;;;
44734;BME280;30462;52.446;-1.930;2022-11-03T02:17:18;98902.65234;;;;
44734;BME280;30462;52.446;-1.930;2022-11-03T02:18:19;98906.94531;;;;
44734;BME280;30462;52.446;-1.930;2022-11-03T02:19:19;98904.92969;;;;
44734;BME280;30462;52.446;-1.930;2022-11-03T02:20:18;98903.85938;;;;
44734;BME280;30462;52.446;-1.930;2022-11-03T02:21:22;98905.8125;;;;
44734;BME280;30462;52.446;-1.930;2022-11-03T02:22:24;98905.29297;;;;
44734;BME280;30462;52.446;-1.930;2022-11-03T02:23:20;98901.78125;;;;
44734;BME280;30462;52.446;-1.930;2022-11-03T02:24:21;98895.9375;;;;
44734;BME280;30462;52.446;-1.930;2022-11-03T02:26:18;98891.17578;;;;
44734;BME280;30462;52.446;-1.930;2022-11-03T02:27:18;98887.18359;;;;
44734;BME280;30462;52.446;-1.930;2022-11-03T02:28:18;98880.76563;;;;
44734;BME280;30462;52.446;-1.930;2022-11-03T02:29:18;98877.67969;;;;
44734;BME280;30462;52.446;-1.930;2022-11-03T02:30:18;98876.91016;;;;
44734;BME280;30462;52.446;-1.930;2022-11-03T02:31:22;98874.79688;;;;
44734;BME280;30462;52.446;-1.930;2022-11-03T02:32:19;98867.80078;;;;
44734;BME280;30462;52.446;-1.930;2022-11-03T02:33:21;98865.48047;;;;
44734;BME280;30462;52.446;-1.930;2022-11-03T02:34:20;98859.10938;;;;
44734;BME280;30462;52.446;-1.930;2022-11-03T02:35:19;98859.76563;;;;
44734;BME280;30462;52.446;-1.930;2022-11-03T02:36:19;98855.42578;;;;
44734;BME280;30462;52.446;-1.930;2022-11-03T02:37:18;98856.96094;;;;
44734;BME280;30462;52.446;-1.930;2022-11-03T02:38:18;98853.39453;;;;
44734;BME280;30462;52.446;-1.930;2022-11-03T02:39:18;98856.27734;;;;
44734;BME280;30462;52.446;-1.930;2022-11-03T02:40:19;98852.36328;;;;
44734;BME280;30462;52.446;-1.930;2022-11-03T02:41:18;98855.21875;;;;
44734;BME280;30462;52.446;-1.930;2022-11-03T02:42:17;98855.47656;;;;
44734;BME280;30462;52.446;-1.930;2022-11-03T02:43:18;98861.5;;;;
44734;BME280;30462;52.446;-1.930;2022-11-03T02:44:19;98862.44141;;;;
44734;BME280;30462;52.446;-1.930;2022-11-03T02:45:19;98861.54297;;;;
44734;BME280;30462;52.446;-1.930;2022-11-03T02:46:18;98857.77734;;;;
44734;BME280;30462;52.446;-1.930;2022-11-03T02:47:18;98853.62891;;;;
44734;BME280;30462;52.446;-1.930;2022-11-03T02:48:18;98857.15234;;;;
44734;BME280;30462;52.446;-1.930;2022-11-03T02:49:18;98857.15234;;;;
44734;BME280;30462;52.446;-1.930;2022-11-03T02:50:18;98860.65625;;;;
44734;BME280;30462;52.446;-1.930;2022-11-03T02:51:18;98864.43359;;;;
44734;BME280;30462;52.446;-1.930;2022-11-03T02:53:18;98865.51172;;;;
44734;BME280;30462;52.446;-1.930;2022-11-03T02:54:19;98862.67969;;;;
44734;BME280;30462;52.446;-1.930;2022-11-03T02:55:19;98866.51172;;;;
44734;BME280;30462;52.446;-1.930;2022-11-03T02:56:18;98866.17188;;;;
44734;BME280;30462;52.446;-1.930;2022-11-03T02:57:19;98867.10938;;;;
44734;BME280;30462;52.446;-1.930;2022-11-03T02:58:22;98872.22656;;;;
44734;BME280;30462;52.446;-1.930;2022-11-03T02:59:18;98867.00391;;;;
44734;BME280;30462;52.446;-1.930;2022-11-03T03:00:18;98860.50781;;;;
44734;BME280;30462;52.446;-1.930;2022-11-03T03:01:21;98850.96875;;;;
44734;BME280;30462;52.446;-1.930;2022-11-03T03:02:20;98840.16406;;;;
44734;BME280;30462;52.446;-1.930;2022-11-03T03:03:19;98835.80469;;;;
44734;BME280;30462;52.446;-1.930;2022-11-03T03:04:19;98840.41797;;;;
44734;BME280;30462;52.446;-1.930;2022-11-03T03:05:18;98838.94531;;;;
44734;BME280;30462;52.446;-1.930;2022-11-03T03:06:20;98833.48047;;;;
44734;BME280;30462;52.446;-1.930;2022-11-03T03:07:19;98831.48438;;;;
44734;BME280;30462;52.446;-1.930;2022-11-03T03:08:18;98837.48828;;;;
44734;BME280;30462;52.446;-1.930;2022-11-03T03:09:20;98841.19922;;;;
44734;BME280;30462;52.446;-1.930;2022-11-03T03:10:19;98844.86328;;;;
44734;BME280;30462;52.446;-1.930;2022-11-03T03:11:17;98841.64453;;;;
44734;BME280;30462;52.446;-1.930;2022-11-03T03:12:18;98843.29297;;;;
44734;BME280;30462;52.446;-1.930;2022-11-03T03:13:18;98837.10547;;;;
44734;BME280;30462;52.446;-1.930;2022-11-03T03:14:19;98829.39844;;;;
44734;BME280;30462;52.446;-1.930;2022-11-03T03:15:19;98832.60938;;;;
44734;BME280;30462;52.446;-1.930;2022-11-03T03:16:20;98835.17188;;;;
44734;BME280;30462;52.446;-1.930;2022-11-03T03:17:21;98824.6875;;;;
44734;BME280;30462;52.446;-1.930;2022-11-03T03:18:22;98821.15625;;;;
44734;BME280;30462;52.446;-1.930;2022-11-03T03:19:21;98819.91016;;;;
44734;BME280;30462;52.446;-1.930;2022-11-03T03:20:20;98815.16797;;;;
44734;BME280;30462;52.446;-1.930;2022-11-03T03:21:20;98814.26953;;;;
44734;BME280;30462;52.446;-1.930;2022-11-03T03:22:20;98814.18359;;;;
44734;BME280;30462;52.446;-1.930;2022-11-03T03:23:19;98813.19922;;;;
44734;BME280;30462;52.446;-1.930;2022-11-03T03:24:19;98811.62891;;;;
44734;BME280;30462;52.446;-1.930;2022-11-03T03:25:21;98815.32031;;;;
44734;BME280;30462;52.446;-1.930;2022-11-03T03:26:19;98810.02344;;;;
44734;BME280;30462;52.446;-1.930;2022-11-03T03:27:18;98808.83203;;;;
44734;BME280;30462;52.446;-1.930;2022-11-03T03:28:21;98806.80859;;;;
44734;BME280;30462;52.446;-1.930;2022-11-03T03:29:19;98810.96875;;;;
44734;BME280;30462;52.446;-1.930;2022-11-03T03:30:18;98816.75;;;;
44734;BME280;30462;52.446;-1.930;2022-11-03T03:31:18;98815.22656;;;;
44734;BME280;30462;52.446;-1.930;2022-11-03T03:32:18;98814.25;;;;
44734;BME280;30462;52.446;-1.930;2022-11-03T03:33:18;98815.07813;;;;
44734;BME280;30462;52.446;-1.930;2022-11-03T03:34:18;98813.4375;;;;
44734;BME280;30462;52.446;-1.930;2022-11-03T03:35:18;98811.46094;;;;
44734;BME280;30462;52.446;-1.930;2022-11-03T03:36:18;98810.42969;;;;
44734;BME280;30462;52.446;-1.930;2022-11-03T03:37:18;98809.51563;;;;
44734;BME280;30462;52.446;-1.930;2022-11-03T03:38:19;98806.05078;;;;
44734;BME280;30462;52.446;-1.930;2022-11-03T03:39:18;98798.40234;;;;
44734;BME280;30462;52.446;-1.930;2022-11-03T03:40:19;98792.07422;;;;
44734;BME280;30462;52.446;-1.930;2022-11-03T03:41:18;98792.35547;;;;
44734;BME280;30462;52.446;-1.930;2022-11-03T03:42:18;98789.48828;;;;
44734;BME280;30462;52.446;-1.930;2022-11-03T03:43:18;98784.21875;;;;
44734;BME280;30462;52.446;-1.930;2022-11-03T03:44:17;98790.64844;;;;
44734;BME280;30462;52.446;-1.930;2022-11-03T03:45:18;98792.75781;;;;
44734;BME280;30462;52.446;-1.930;2022-11-03T03:46:19;98789.83984;;;;
44734;BME280;30462;52.446;-1.930;2022-11-03T03:47:21;98789.95703;;;;
44734;BME280;30462;52.446;-1.930;2022-11-03T03:48:18;98794.65625;;;;
44734;BME280;30462;52.446;-1.930;2022-11-03T03:49:18;98792.54297;;;;
44734;BME280;30462;52.446;-1.930;2022-11-03T03:50:18;98793.70313;;;;
44734;BME280;30462;52.446;-1.930;2022-11-03T03:51:18;98793.28125;;;;
44734;BME280;30462;52.446;-1.930;2022-11-03T03:52:18;98797.57031;;;;
44734;BME280;30462;52.446;-1.930;2022-11-03T03:53:18;98795.42578;;;;
44734;BME280;30462;52.446;-1.930;2022-11-03T03:54:18;98789.44922;;;;
44734;BME280;30462;52.446;-1.930;2022-11-03T03:55:19;98793.03516;;;;
44734;BME280;30462;52.446;-1.930;2022-11-03T03:56:19;98791.53516;;;;
44734;BME280;30462;52.446;-1.930;2022-11-03T03:57:19;98790.71875;;;;
44734;BME280;30462;52.446;-1.930;2022-11-03T03:58:18;98794.53516;;;;
44734;BME280;30462;52.446;-1.930;2022-11-03T03:59:18;98799.77344;;;;
44734;BME280;30462;52.446;-1.930;2022-11-03T04:00:18;98795.42578;;;;
44734;BME280;30462;52.446;-1.930;2022-11-03T04:01:17;98795.35156;;;;
44734;BME280;30462;52.446;-1.930;2022-11-03T04:02:18;98787.30859;;;;
44734;BME280;30462;52.446;-1.930;2022-11-03T04:03:19;98790.43359;;;;
44734;BME280;30462;52.446;-1.930;2022-11-03T04:04:18;98787.39844;;;;
44734;BME280;30462;52.446;-1.930;2022-11-03T04:05:18;98789.41016;;;;
44734;BME280;30462;52.446;-1.930;2022-11-03T04:06:18;98790.51953;;;;
44734;BME280;30462;52.446;-1.930;2022-11-03T04:07:18;98794.66797;;;;
44734;BME280;30462;52.446;-1.930;2022-11-03T04:08:17;98796.66016;;;;
44734;BME280;30462;52.446;-1.930;2022-11-03T04:09:18;98800.43359;;;;
44734;BME280;30462;52.446;-1.930;2022-11-03T04:10:18;98797.02734;;;;
44734;BME280;30462;52.446;-1.930;2022-11-03T04:11:18;98797.58594;;;;
44734;BME280;30462;52.446;-1.930;2022-11-03T04:12:18;98794.30469;;;;
44734;BME280;30462;52.446;-1.930;2022-11-03T04:13:18;98793.10156;;;;
44734;BME280;30462;52.446;-1.930;2022-11-03T04:14:18;98791.66797;;;;
44734;BME280;30462;52.446;-1.930;2022-11-03T04:15:18;98791.50391;;;;
44734;BME280;30462;52.446;-1.930;2022-11-03T04:16:18;98787.98047;;;;
44734;BME280;30462;52.446;-1.930;2022-11-03T04:17:19;98782.32422;;;;
44734;BME280;30462;52.446;-1.930;2022-11-03T04:18:20;98779.82422;;;;
44734;BME280;30462;52.446;-1.930;2022-11-03T04:19:18;98782.69141;;;;
44734;BME280;30462;52.446;-1.930;2022-11-03T04:20:18;98784.51172;;;;
44734;BME280;30462;52.446;-1.930;2022-11-03T04:21:17;98777.53906;;;;
44734;BME280;30462;52.446;-1.930;2022-11-03T04:22:18;98777.75391;;;;
44734;BME280;30462;52.446;-1.930;2022-11-03T04:23:18;98774.14063;;;;
44734;BME280;30462;52.446;-1.930;2022-11-03T04:24:18;98773.67969;;;;
44734;BME280;30462;52.446;-1.930;2022-11-03T04:25:18;98778.02734;;;;
44734;BME280;30462;52.446;-1.930;2022-11-03T04:26:18;98775.55859;;;;
44734;BME280;30462;52.446;-1.930;2022-11-03T04:27:23;98773.92578;;;;
44734;BME280;30462;52.446;-1.930;2022-11-03T04:28:18;98773.40625;;;;
44734;BME280;30462;52.446;-1.930;2022-11-03T04:29:18;98776.69531;;;;
44734;BME280;30462;52.446;-1.930;2022-11-03T04:30:20;98779.87891;;;;
44734;BME280;30462;52.446;-1.930;2022-11-03T04:31:18;98775.12109;;;;
44734;BME280;30462;52.446;-1.930;2022-11-03T04:32:18;98772.89453;;;;
44734;BME280;30462;52.446;-1.930;2022-11-03T04:33:19;98774.42188;;;;
44734;BME280;30462;52.446;-1.930;2022-11-03T04:34:18;98781.58203;;;;
44734;BME280;30462;52.446;-1.930;2022-11-03T04:35:21;98783.33984;;;;
44734;BME280;30462;52.446;-1.930;2022-11-03T04:36:18;98780.57422;;;;
44734;BME280;30462;52.446;-1.930;2022-11-03T04:37:17;98782.51953;;;;
44734;BME280;30462;52.446;-1.930;2022-11-03T04:38:19;98778.53125;;;;
44734;BME280;30462;52.446;-1.930;2022-11-03T04:39:18;98776.5625;;;;
44734;BME280;30462;52.446;-1.930;2022-11-03T04:40:18;98777.78125;;;;
44734;BME280;30462;52.446;-1.930;2022-11-03T04:41:19;98774.87891;;;;
44734;BME280;30462;52.446;-1.930;2022-11-03T04:42:19;98773.59375;;;;
44734;BME280;30462;52.446;-1.930;2022-11-03T04:43:19;98772;;;;
44734;BME280;30462;52.446;-1.930;2022-11-03T04:44:18;98775.98047;;;;
44734;BME280;30462;52.446;-1.930;2022-11-03T04:45:22;98773.52344;;;;
44734;BME280;30462;52.446;-1.930;2022-11-03T04:46:22;98771.46875;;;;
44734;BME280;30462;52.446;-1.930;2022-11-03T04:47:18;98769.58984;;;;
44734;BME280;30462;52.446;-1.930;2022-11-03T04:48:18;98768.48047;;;;
44734;BME280;30462;52.446;-1.930;2022-11-03T04:49:19;98771.88672;;;;
44734;BME280;30462;52.446;-1.930;2022-11-03T04:50:19;98769.67969;;;;
44734;BME280;30462;52.446;-1.930;2022-11-03T04:51:19;98774.94922;;;;
44734;BME280;30462;52.446;-1.930;2022-11-03T04:52:20;98774.45313;;;;
44734;BME280;30462;52.446;-1.930;2022-11-03T04:53:19;98775.94531;;;;
44734;BME280;30462;52.446;-1.930;2022-11-03T04:54:18;98768.74219;;;;
44734;BME280;30462;52.446;-1.930;2022-11-03T04:55:18;98771.59375;;;;
44734;BME280;30462;52.446;-1.930;2022-11-03T04:56:19;98767.33594;;;;
44734;BME280;30462;52.446;-1.930;2022-11-03T04:57:18;98768.27344;;;;
44734;BME280;30462;52.446;-1.930;2022-11-03T04:58:19;98767.67188;;;;
44734;BME280;30462;52.446;-1.930;2022-11-03T04:59:18;98766.39844;;;;
44734;BME280;30462;52.446;-1.930;2022-11-03T05:00:18;98765.51172;;;;
44734;BME280;30462;52.446;-1.930;2022-11-03T05:01:18;98764.69531;;;;
44734;BME280;30462;52.446;-1.930;2022-11-03T05:02:18;98764.38281;;;;
44734;BME280;30462;52.446;-1.930;2022-11-03T05:03:20;98766.72266;;;;
44734;BME280;30462;52.446;-1.930;2022-11-03T05:04:18;98763.94531;;;;
44734;BME280;30462;52.446;-1.930;2022-11-03T05:05:18;98761.06641;;;;
44734;BME280;30462;52.446;-1.930;2022-11-03T05:06:19;98761.41406;;;;
44734;BME280;30462;52.446;-1.930;2022-11-03T05:07:22;98763.24219;;;;
44734;BME280;30462;52.446;-1.930;2022-11-03T05:08:18;98757.40234;;;;
44734;BME280;30462;52.446;-1.930;2022-11-03T05:09:19;98757.13281;;;;
44734;BME280;30462;52.446;-1.930;2022-11-03T05:10:19;98755.29297;;;;
44734;BME280;30462;52.446;-1.930;2022-11-03T05:11:18;98757.5;;;;
44734;BME280;30462;52.446;-1.930;2022-11-03T05:12:18;98751.26563;;;;
44734;BME280;30462;52.446;-1.930;2022-11-03T05:13:20;98749.26953;;;;
44734;BME280;30462;52.446;-1.930;2022-11-03T05:14:20;98747.86328;;;;
44734;BME280;30462;52.446;-1.930;2022-11-03T05:16:18;98748.39844;;;;
44734;BME280;30462;52.446;-1.930;2022-11-03T05:17:21;98742.0625;;;;
44734;BME280;30462;52.446;-1.930;2022-11-03T05:18:22;98741.5625;;;;
44734;BME280;30462;52.446;-1.930;2022-11-03T05:19:20;98738.10156;;;;
44734;BME280;30462;52.446;-1.930;2022-11-03T05:21:20;98735.98438;;;;
44734;BME280;30462;52.446;-1.930;2022-11-03T05:22:19;98735.77734;;;;
44734;BME280;30462;52.446;-1.930;2022-11-03T05:23:18;98731.76563;;;;
44734;BME280;30462;52.446;-1.930;2022-11-03T05:24:19;98732.77344;;;;
44734;BME280;30462;52.446;-1.930;2022-11-03T05:26:19;98727.27344;;;;
44734;BME280;30462;52.446;-1.930;2022-11-03T05:27:18;98727.44922;;;;
44734;BME280;30462;52.446;-1.930;2022-11-03T05:28:19;98725.10547;;;;
44734;BME280;30462;52.446;-1.930;2022-11-03T05:29:18;98721.75;;;;
44734;BME280;30462;52.446;-1.930;2022-11-03T05:30:18;98723.50391;;;;
44734;BME280;30462;52.446;-1.930;2022-11-03T05:31:20;98721.57031;;;;
44734;BME280;30462;52.446;-1.930;2022-11-03T05:32:19;98720.26172;;;;
44734;BME280;30462;52.446;-1.930;2022-11-03T05:33:19;98715.27734;;;;
44734;BME280;30462;52.446;-1.930;2022-11-03T05:35:19;98710.09375;;;;
44734;BME280;30462;52.446;-1.930;2022-11-03T05:36:19;98715.21094;;;;
44734;BME280;30462;52.446;-1.930;2022-11-03T05:38:18;98716.22656;;;;
44734;BME280;30462;52.446;-1.930;2022-11-03T05:40:20;98709.46094;;;;
44734;BME280;30462;52.446;-1.930;2022-11-03T05:41:19;98710.35156;;;;
44734;BME280;30462;52.446;-1.930;2022-11-03T05:42:19;98710.65234;;;;
44734;BME280;30462;52.446;-1.930;2022-11-03T05:43:19;98710.42969;;;;
44734;BME280;30462;52.446;-1.930;2022-11-03T05:44:22;98706.48047;;;;
44734;BME280;30462;52.446;-1.930;2022-11-03T05:45:20;98700.61719;;;;
44734;BME280;30462;52.446;-1.930;2022-11-03T05:46:18;98697.56641;;;;
44734;BME280;30462;52.446;-1.930;2022-11-03T05:47:19;98699.60156;;;;
44734;BME280;30462;52.446;-1.930;2022-11-03T05:48:20;98698.86328;;;;
44734;BME280;30462;52.446;-1.930;2022-11-03T05:49:18;98699.01563;;;;
44734;BME280;30462;52.446;-1.930;2022-11-03T05:50:19;98704.08203;;;;
44734;BME280;30462;52.446;-1.930;2022-11-03T05:51:19;98705.05469;;;;
44734;BME280;30462;52.446;-1.930;2022-11-03T05:52:19;98701.28516;;;;
44734;BME280;30462;52.446;-1.930;2022-11-03T05:54:21;98703.55859;;;;
44734;BME280;30462;52.446;-1.930;2022-11-03T05:55:21;98702.51953;;;;